sensor_id;sensor_type;location;lat;lon;timestamp;pressure;altitude;pressure_sealevel;temperature;humidity
41044;BME280;51680;49.806;18.774;2023-03-14T00:02:12;95885.06;;;12.87;51.36
41044;BME280;51680;49.806;18.774;2023-03-14T00:05:14;95880.00;;;12.86;51.04
41044;BME280;51680;49.806;18.774;2023-03-14T00:08:17;95868.97;;;12.82;51.25
41044;BME280;51680;49.806;18.774;2023-03-14T00:11:21;95865.25;;;12.85;51.20
41044;BME280;51680;49.806;18.774;2023-03-14T00:14:24;95855.81;;;12.92;51.38
41044;BME280;51680;49.806;18.774;2023-03-14T00:17:26;95852.00;;;12.69;50.92
41044;BME280;51680;49.806;18.774;2023-03-14T00:20:28;95813.56;;;12.69;51.60
41044;BME280;51680;49.806;18.774;2023-03-14T00:23:32;95798.06;;;12.58;51.56
41044;BME280;51680;49.806;18.774;2023-03-14T00:26:34;95778.41;;;12.54;51.55
41044;BME280;51680;49.806;18.774;2023-03-14T00:29:36;95774.97;;;12.36;52.24
41044;BME280;51680;49.806;18.774;2023-03-14T00:32:38;95768.50;;;12.31;52.08
41044;BME280;51680;49.806;18.774;2023-03-14T00:35:39;95759.66;;;12.14;52.19
41044;BME280;51680;49.806;18.774;2023-03-14T00:38:44;95727.47;;;12.14;52.47
41044;BME280;51680;49.806;18.774;2023-03-14T00:41:46;95756.41;;;12.12;52.63
41044;BME280;51680;49.806;18.774;2023-03-14T00:44:47;95709.38;;;12.20;52.67
41044;BME280;51680;49.806;18.774;2023-03-14T00:47:49;95724.41;;;12.18;52.11
41044;BME280;51680;49.806;18.774;2023-03-14T00:50:51;95713.72;;;12.29;52.20
41044;BME280;51680;49.806;18.774;2023-03-14T00:53:54;95713.09;;;12.18;52.80
41044;BME280;51680;49.806;18.774;2023-03-14T00:56:56;95719.47;;;12.15;52.76
41044;BME280;51680;49.806;18.774;2023-03-14T00:59:58;95696.91;;;12.14;52.67
41044;BME280;51680;49.806;18.774;2023-03-14T01:03:00;95710.06;;;12.05;52.75
41044;BME280;51680;49.806;18.774;2023-03-14T01:06:13;95678.06;;;12.11;52.69
41044;BME280;51680;49.806;18.774;2023-03-14T01:09:18;95643.56;;;12.07;52.97
41044;BME280;51680;49.806;18.774;2023-03-14T01:12:22;95656.91;;;12.04;52.53
41044;BME280;51680;49.806;18.774;2023-03-14T01:15:24;95642.81;;;11.97;52.85
41044;BME280;51680;49.806;18.774;2023-03-14T01:18:25;95634.00;;;11.98;52.93
41044;BME280;51680;49.806;18.774;2023-03-14T01:21:29;95661.78;;;11.99;53.29
41044;BME280;51680;49.806;18.774;2023-03-14T01:24:32;95611.06;;;12.10;52.87
41044;BME280;51680;49.806;18.774;2023-03-14T01:27:34;95615.44;;;12.09;52.36
41044;BME280;51680;49.806;18.774;2023-03-14T01:30:36;95631.88;;;12.19;52.13
41044;BME280;51680;49.806;18.774;2023-03-14T01:33:39;95619.09;;;12.34;52.50
41044;BME280;51680;49.806;18.774;2023-03-14T01:36:43;95614.53;;;12.18;52.20
41044;BME280;51680;49.806;18.774;2023-03-14T01:39:47;95617.81;;;12.20;52.52
41044;BME280;51680;49.806;18.774;2023-03-14T01:42:54;95658.34;;;12.16;52.06
41044;BME280;51680;49.806;18.774;2023-03-14T01:46:21;95618.16;;;12.17;52.64
41044;BME280;51680;49.806;18.774;2023-03-14T01:49:26;95614.91;;;12.23;52.21
41044;BME280;51680;49.806;18.774;2023-03-14T01:52:36;95614.38;;;12.37;51.81
41044;BME280;51680;49.806;18.774;2023-03-14T01:55:44;95607.50;;;12.36;51.65
41044;BME280;51680;49.806;18.774;2023-03-14T01:58:49;95594.63;;;12.43;51.65
41044;BME280;51680;49.806;18.774;2023-03-14T02:01:54;95587.50;;;12.53;51.21
41044;BME280;51680;49.806;18.774;2023-03-14T02:04:57;95580.81;;;12.58;51.45
41044;BME280;51680;49.806;18.774;2023-03-14T02:08:08;95587.53;;;12.61;50.43
41044;BME280;51680;49.806;18.774;2023-03-14T02:11:20;95602.72;;;12.57;51.15
41044;BME280;51680;49.806;18.774;2023-03-14T02:14:33;95564.81;;;12.61;50.78
41044;BME280;51680;49.806;18.774;2023-03-14T02:17:59;95562.25;;;12.69;50.75
41044;BME280;51680;49.806;18.774;2023-03-14T02:21:21;95573.56;;;12.78;50.35
41044;BME280;51680;49.806;18.774;2023-03-14T02:24:33;95569.53;;;12.83;50.19
41044;BME280;51680;49.806;18.774;2023-03-14T02:27:43;95564.88;;;12.77;50.38
41044;BME280;51680;49.806;18.774;2023-03-14T02:30:46;95570.66;;;12.89;50.29
41044;BME280;51680;49.806;18.774;2023-03-14T02:33:48;95565.63;;;12.95;49.79
41044;BME280;51680;49.806;18.774;2023-03-14T02:36:51;95583.38;;;13.01;49.55
41044;BME280;51680;49.806;18.774;2023-03-14T02:39:53;95580.69;;;13.19;49.55
41044;BME280;51680;49.806;18.774;2023-03-14T02:42:56;95597.09;;;13.29;49.30
41044;BME280;51680;49.806;18.774;2023-03-14T02:46:00;95576.94;;;13.29;49.06
41044;BME280;51680;49.806;18.774;2023-03-14T02:49:07;95579.94;;;13.42;48.61
41044;BME280;51680;49.806;18.774;2023-03-14T02:52:11;95594.34;;;13.46;48.97
41044;BME280;51680;49.806;18.774;2023-03-14T02:55:13;95612.84;;;13.45;48.78
41044;BME280;51680;49.806;18.774;2023-03-14T02:58:20;95608.56;;;13.36;48.95
41044;BME280;51680;49.806;18.774;2023-03-14T03:01:27;95594.63;;;13.27;49.05
41044;BME280;51680;49.806;18.774;2023-03-14T03:04:29;95619.50;;;13.23;49.32
41044;BME280;51680;49.806;18.774;2023-03-14T03:07:30;95625.88;;;13.21;49.02
41044;BME280;51680;49.806;18.774;2023-03-14T03:10:33;95628.63;;;13.19;49.33
41044;BME280;51680;49.806;18.774;2023-03-14T03:13:36;95626.16;;;13.18;49.49
41044;BME280;51680;49.806;18.774;2023-03-14T03:16:40;95623.09;;;13.22;49.67
41044;BME280;51680;49.806;18.774;2023-03-14T03:19:42;95625.66;;;13.14;49.47
41044;BME280;51680;49.806;18.774;2023-03-14T03:22:44;95610.59;;;13.08;49.80
41044;BME280;51680;49.806;18.774;2023-03-14T03:25:50;95598.47;;;13.07;49.84
41044;BME280;51680;49.806;18.774;2023-03-14T03:28:53;95608.28;;;13.05;50.09
41044;BME280;51680;49.806;18.774;2023-03-14T03:31:57;95611.38;;;13.01;50.05
41044;BME280;51680;49.806;18.774;2023-03-14T03:34:59;95602.03;;;12.98;50.65
41044;BME280;51680;49.806;18.774;2023-03-14T03:38:01;95599.69;;;12.95;50.54
41044;BME280;51680;49.806;18.774;2023-03-14T03:41:05;95621.72;;;12.85;50.48
41044;BME280;51680;49.806;18.774;2023-03-14T03:44:09;95627.13;;;12.83;50.50
41044;BME280;51680;49.806;18.774;2023-03-14T03:47:11;95623.94;;;12.72;50.67
41044;BME280;51680;49.806;18.774;2023-03-14T03:50:12;95611.63;;;12.64;50.42
41044;BME280;51680;49.806;18.774;2023-03-14T03:53:14;95598.97;;;12.60;50.89
41044;BME280;51680;49.806;18.774;2023-03-14T03:56:16;95584.41;;;12.57;50.78
41044;BME280;51680;49.806;18.774;2023-03-14T03:59:20;95580.44;;;12.45;51.34
41044;BME280;51680;49.806;18.774;2023-03-14T04:02:22;95613.16;;;12.49;51.04
41044;BME280;51680;49.806;18.774;2023-03-14T04:05:25;95623.03;;;12.63;50.70
41044;BME280;51680;49.806;18.774;2023-03-14T04:08:33;95645.19;;;12.69;50.85
41044;BME280;51680;49.806;18.774;2023-03-14T04:11:35;95658.47;;;12.75;51.14
41044;BME280;51680;49.806;18.774;2023-03-14T04:14:59;95688.91;;;12.76;50.82
41044;BME280;51680;49.806;18.774;2023-03-14T04:18:01;95684.88;;;12.82;50.68
41044;BME280;51680;49.806;18.774;2023-03-14T04:21:05;95685.88;;;12.81;50.48
41044;BME280;51680;49.806;18.774;2023-03-14T04:24:17;95673.91;;;12.78;50.77
41044;BME280;51680;49.806;18.774;2023-03-14T04:27:22;95675.75;;;12.68;51.04
41044;BME280;51680;49.806;18.774;2023-03-14T04:30:26;95661.00;;;12.59;51.35
41044;BME280;51680;49.806;18.774;2023-03-14T04:33:31;95647.34;;;12.48;51.02
41044;BME280;51680;49.806;18.774;2023-03-14T04:36:33;95641.94;;;12.49;51.04
41044;BME280;51680;49.806;18.774;2023-03-14T04:39:39;95651.44;;;12.50;51.20
41044;BME280;51680;49.806;18.774;2023-03-14T04:42:51;95666.81;;;12.53;50.89
41044;BME280;51680;49.806;18.774;2023-03-14T04:45:56;95663.84;;;12.48;51.63
41044;BME280;51680;49.806;18.774;2023-03-14T04:48:58;95648.00;;;12.50;51.49
41044;BME280;51680;49.806;18.774;2023-03-14T04:52:00;95640.97;;;12.50;51.43
41044;BME280;51680;49.806;18.774;2023-03-14T04:55:05;95640.75;;;12.44;51.34
41044;BME280;51680;49.806;18.774;2023-03-14T04:58:06;95652.97;;;12.35;51.60
41044;BME280;51680;49.806;18.774;2023-03-14T05:01:10;95634.19;;;12.40;51.56
41044;BME280;51680;49.806;18.774;2023-03-14T05:04:29;95618.94;;;12.35;51.84
41044;BME280;51680;49.806;18.774;2023-03-14T05:07:56;95631.31;;;12.25;51.58
41044;BME280;51680;49.806;18.774;2023-03-14T05:11:12;95610.66;;;12.22;52.14
41044;BME280;51680;49.806;18.774;2023-03-14T05:14:29;95601.97;;;12.22;52.39
41044;BME280;51680;49.806;18.774;2023-03-14T05:17:55;95587.47;;;12.27;52.24
41044;BME280;51680;49.806;18.774;2023-03-14T05:21:12;95616.50;;;12.16;52.41
41044;BME280;51680;49.806;18.774;2023-03-14T05:24:40;95619.59;;;12.37;52.24
41044;BME280;51680;49.806;18.774;2023-03-14T05:28:04;95620.47;;;12.46;51.41
41044;BME280;51680;49.806;18.774;2023-03-14T05:31:13;95620.84;;;12.51;51.45
41044;BME280;51680;49.806;18.774;2023-03-14T05:34:22;95621.34;;;12.29;52.15
41044;BME280;51680;49.806;18.774;2023-03-14T05:37:36;95624.25;;;12.26;52.09
41044;BME280;51680;49.806;18.774;2023-03-14T05:40:57;95620.75;;;12.17;52.27
41044;BME280;51680;49.806;18.774;2023-03-14T05:44:14;95593.34;;;12.21;52.53
41044;BME280;51680;49.806;18.774;2023-03-14T05:47:36;95593.44;;;12.37;51.98
41044;BME280;51680;49.806;18.774;2023-03-14T05:51:02;95600.84;;;12.24;52.60
41044;BME280;51680;49.806;18.774;2023-03-14T05:54:23;95584.22;;;12.25;52.74
41044;BME280;51680;49.806;18.774;2023-03-14T05:57:41;95573.13;;;12.31;52.81
41044;BME280;51680;49.806;18.774;2023-03-14T06:01:15;95577.09;;;12.35;52.09
41044;BME280;51680;49.806;18.774;2023-03-14T06:04:44;95560.19;;;12.55;51.79
41044;BME280;51680;49.806;18.774;2023-03-14T06:07:47;95553.34;;;12.62;51.71
41044;BME280;51680;49.806;18.774;2023-03-14T06:10:49;95566.81;;;12.42;52.04
41044;BME280;51680;49.806;18.774;2023-03-14T06:13:53;95564.59;;;12.29;52.50
41044;BME280;51680;49.806;18.774;2023-03-14T06:16:55;95559.06;;;12.32;52.41
41044;BME280;51680;49.806;18.774;2023-03-14T06:19:59;95554.03;;;12.13;53.51
41044;BME280;51680;49.806;18.774;2023-03-14T06:23:05;95548.78;;;12.13;53.10
41044;BME280;51680;49.806;18.774;2023-03-14T06:26:07;95553.19;;;12.13;53.30
41044;BME280;51680;49.806;18.774;2023-03-14T06:29:09;95560.38;;;12.11;53.07
41044;BME280;51680;49.806;18.774;2023-03-14T06:32:12;95577.06;;;12.10;53.32
41044;BME280;51680;49.806;18.774;2023-03-14T06:35:13;95563.66;;;12.13;53.20
41044;BME280;51680;49.806;18.774;2023-03-14T06:38:19;95564.06;;;12.00;53.77
41044;BME280;51680;49.806;18.774;2023-03-14T06:41:22;95557.19;;;11.99;54.12
41044;BME280;51680;49.806;18.774;2023-03-14T06:44:26;95567.69;;;12.25;53.53
41044;BME280;51680;49.806;18.774;2023-03-14T06:47:28;95542.94;;;12.45;53.05
41044;BME280;51680;49.806;18.774;2023-03-14T06:50:30;95547.97;;;12.38;53.33
41044;BME280;51680;49.806;18.774;2023-03-14T06:53:35;95549.72;;;12.55;53.28
41044;BME280;51680;49.806;18.774;2023-03-14T06:56:37;95537.28;;;12.57;52.76
41044;BME280;51680;49.806;18.774;2023-03-14T06:59:39;95529.78;;;12.54;52.82
41044;BME280;51680;49.806;18.774;2023-03-14T07:02:41;95528.22;;;12.77;52.45
41044;BME280;51680;49.806;18.774;2023-03-14T07:05:52;95515.53;;;12.90;51.95
41044;BME280;51680;49.806;18.774;2023-03-14T07:08:56;95529.66;;;12.64;52.40
41044;BME280;51680;49.806;18.774;2023-03-14T07:11:57;95517.78;;;12.44;52.93
41044;BME280;51680;49.806;18.774;2023-03-14T07:14:59;95548.41;;;12.51;52.85
41044;BME280;51680;49.806;18.774;2023-03-14T07:18:01;95567.69;;;12.84;52.90
41044;BME280;51680;49.806;18.774;2023-03-14T07:21:04;95571.97;;;13.18;52.00
41044;BME280;51680;49.806;18.774;2023-03-14T07:24:07;95586.53;;;13.13;52.05
41044;BME280;51680;49.806;18.774;2023-03-14T07:27:09;95575.44;;;14.08;50.51
41044;BME280;51680;49.806;18.774;2023-03-14T07:30:11;95578.56;;;14.68;48.94
41044;BME280;51680;49.806;18.774;2023-03-14T07:33:13;95569.66;;;15.23;47.95
41044;BME280;51680;49.806;18.774;2023-03-14T07:36:15;95574.69;;;15.49;46.59
41044;BME280;51680;49.806;18.774;2023-03-14T07:39:20;95583.94;;;16.12;45.78
41044;BME280;51680;49.806;18.774;2023-03-14T07:42:22;95594.06;;;15.48;46.39
41044;BME280;51680;49.806;18.774;2023-03-14T07:45:34;95616.38;;;15.13;46.29
41044;BME280;51680;49.806;18.774;2023-03-14T07:48:36;95606.13;;;14.72;47.39
41044;BME280;51680;49.806;18.774;2023-03-14T07:51:37;95592.94;;;14.88;48.05
41044;BME280;51680;49.806;18.774;2023-03-14T07:54:40;95604.25;;;14.96;48.08
41044;BME280;51680;49.806;18.774;2023-03-14T07:57:42;95600.06;;;15.64;46.90
41044;BME280;51680;49.806;18.774;2023-03-14T08:00:44;95600.84;;;15.42;46.46
41044;BME280;51680;49.806;18.774;2023-03-14T08:03:47;95583.44;;;15.25;47.53
41044;BME280;51680;49.806;18.774;2023-03-14T08:06:49;95592.63;;;14.75;48.15
41044;BME280;51680;49.806;18.774;2023-03-14T08:09:52;95603.16;;;14.43;48.90
41044;BME280;51680;49.806;18.774;2023-03-14T08:12:55;95583.31;;;14.40;49.61
41044;BME280;51680;49.806;18.774;2023-03-14T08:15:57;95598.41;;;14.14;50.03
41044;BME280;51680;49.806;18.774;2023-03-14T08:18:59;95603.00;;;14.12;50.44
41044;BME280;51680;49.806;18.774;2023-03-14T08:22:01;95600.09;;;14.31;49.96
41044;BME280;51680;49.806;18.774;2023-03-14T08:25:05;95605.00;;;14.26;50.07
41044;BME280;51680;49.806;18.774;2023-03-14T08:28:07;95607.91;;;14.07;50.47
41044;BME280;51680;49.806;18.774;2023-03-14T08:31:09;95610.84;;;14.04;50.61
41044;BME280;51680;49.806;18.774;2023-03-14T08:34:10;95603.97;;;13.95;51.10
41044;BME280;51680;49.806;18.774;2023-03-14T08:37:12;95608.88;;;14.06;51.08
41044;BME280;51680;49.806;18.774;2023-03-14T08:40:16;95600.06;;;14.07;51.02
41044;BME280;51680;49.806;18.774;2023-03-14T08:43:18;95619.38;;;14.06;51.30
41044;BME280;51680;49.806;18.774;2023-03-14T08:46:21;95618.56;;;14.14;51.42
41044;BME280;51680;49.806;18.774;2023-03-14T08:49:23;95628.56;;;14.10;51.42
41044;BME280;51680;49.806;18.774;2023-03-14T08:52:25;95628.47;;;14.36;50.85
41044;BME280;51680;49.806;18.774;2023-03-14T08:55:28;95633.50;;;14.69;50.13
41044;BME280;51680;49.806;18.774;2023-03-14T08:58:30;95621.09;;;15.10;49.25
41044;BME280;51680;49.806;18.774;2023-03-14T09:01:32;95631.44;;;15.19;49.01
41044;BME280;51680;49.806;18.774;2023-03-14T09:04:33;95630.44;;;15.28;49.01
41044;BME280;51680;49.806;18.774;2023-03-14T09:07:37;95607.13;;;15.33;49.02
41044;BME280;51680;49.806;18.774;2023-03-14T09:10:40;95608.56;;;15.44;48.79
41044;BME280;51680;49.806;18.774;2023-03-14T09:13:42;95623.19;;;15.30;48.84
41044;BME280;51680;49.806;18.774;2023-03-14T09:16:44;95627.31;;;16.24;47.42
41044;BME280;51680;49.806;18.774;2023-03-14T09:19:45;95615.19;;;17.26;45.61
41044;BME280;51680;49.806;18.774;2023-03-14T09:22:48;95615.03;;;17.42;45.16
41044;BME280;51680;49.806;18.774;2023-03-14T09:25:55;95626.56;;;17.41;44.63
41044;BME280;51680;49.806;18.774;2023-03-14T09:28:57;95618.75;;;17.33;45.10
41044;BME280;51680;49.806;18.774;2023-03-14T09:31:59;95616.44;;;17.74;44.91
41044;BME280;51680;49.806;18.774;2023-03-14T09:35:01;95618.69;;;17.77;44.56
41044;BME280;51680;49.806;18.774;2023-03-14T09:38:02;95618.53;;;18.14;44.29
41044;BME280;51680;49.806;18.774;2023-03-14T09:41:15;95625.88;;;18.18;43.02
41044;BME280;51680;49.806;18.774;2023-03-14T09:44:21;95634.53;;;17.77;44.23
41044;BME280;51680;49.806;18.774;2023-03-14T09:47:26;95637.59;;;17.45;45.22
41044;BME280;51680;49.806;18.774;2023-03-14T09:50:33;95639.66;;;17.20;45.12
41044;BME280;51680;49.806;18.774;2023-03-14T09:53:40;95653.31;;;16.87;46.58
41044;BME280;51680;49.806;18.774;2023-03-14T09:56:44;95666.81;;;16.69;47.11
41044;BME280;51680;49.806;18.774;2023-03-14T09:59:47;95673.28;;;16.44;47.76
41044;BME280;51680;49.806;18.774;2023-03-14T10:02:52;95676.63;;;16.30;47.98
41044;BME280;51680;49.806;18.774;2023-03-14T10:05:55;95683.81;;;16.14;48.56
41044;BME280;51680;49.806;18.774;2023-03-14T10:08:57;95689.63;;;16.09;48.80
41044;BME280;51680;49.806;18.774;2023-03-14T10:12:01;95686.88;;;15.95;48.68
41044;BME280;51680;49.806;18.774;2023-03-14T10:15:05;95680.41;;;15.75;48.94
41044;BME280;51680;49.806;18.774;2023-03-14T10:18:11;95670.91;;;15.66;49.22
41044;BME280;51680;49.806;18.774;2023-03-14T10:21:24;95677.69;;;15.60;49.31
41044;BME280;51680;49.806;18.774;2023-03-14T10:24:29;95675.56;;;15.56;49.46
41044;BME280;51680;49.806;18.774;2023-03-14T10:27:34;95682.81;;;15.54;49.37
41044;BME280;51680;49.806;18.774;2023-03-14T10:30:44;95683.00;;;15.44;49.76
41044;BME280;51680;49.806;18.774;2023-03-14T10:33:58;95682.69;;;15.39;49.90
41044;BME280;51680;49.806;18.774;2023-03-14T10:37:04;95684.06;;;14.95;50.98
41044;BME280;51680;49.806;18.774;2023-03-14T10:40:13;95689.00;;;14.98;51.25
41044;BME280;51680;49.806;18.774;2023-03-14T10:43:17;95693.13;;;14.69;51.65
41044;BME280;51680;49.806;18.774;2023-03-14T10:46:23;95691.97;;;14.71;51.89
41044;BME280;51680;49.806;18.774;2023-03-14T10:49:45;95678.31;;;14.84;51.48
41044;BME280;51680;49.806;18.774;2023-03-14T10:52:48;95684.34;;;15.16;51.31
41044;BME280;51680;49.806;18.774;2023-03-14T10:55:51;95681.41;;;15.11;52.11
41044;BME280;51680;49.806;18.774;2023-03-14T10:58:57;95678.91;;;15.26;51.00
41044;BME280;51680;49.806;18.774;2023-03-14T11:02:02;95682.03;;;15.37;50.94
41044;BME280;51680;49.806;18.774;2023-03-14T11:05:15;95684.66;;;15.29;51.20
41044;BME280;51680;49.806;18.774;2023-03-14T11:08:22;95678.09;;;15.41;51.34
41044;BME280;51680;49.806;18.774;2023-03-14T11:11:28;95669.19;;;15.42;51.28
41044;BME280;51680;49.806;18.774;2023-03-14T11:14:36;95664.88;;;15.49;50.95
41044;BME280;51680;49.806;18.774;2023-03-14T11:17:46;95652.16;;;15.69;50.49
41044;BME280;51680;49.806;18.774;2023-03-14T11:20:54;95652.31;;;15.75;50.83
41044;BME280;51680;49.806;18.774;2023-03-14T11:24:12;95647.41;;;15.64;50.42
41044;BME280;51680;49.806;18.774;2023-03-14T11:27:22;95646.72;;;15.70;50.37
41044;BME280;51680;49.806;18.774;2023-03-14T11:30:28;95649.09;;;15.88;50.50
41044;BME280;51680;49.806;18.774;2023-03-14T11:33:37;95656.25;;;16.02;50.24
41044;BME280;51680;49.806;18.774;2023-03-14T11:36:41;95657.66;;;16.12;50.42
41044;BME280;51680;49.806;18.774;2023-03-14T11:39:52;95650.06;;;16.17;50.52
41044;BME280;51680;49.806;18.774;2023-03-14T11:43:04;95650.88;;;16.18;50.31
41044;BME280;51680;49.806;18.774;2023-03-14T11:46:11;95651.53;;;16.20;50.61
41044;BME280;51680;49.806;18.774;2023-03-14T11:49:25;95656.31;;;16.16;50.41
41044;BME280;51680;49.806;18.774;2023-03-14T11:52:31;95658.72;;;16.03;50.98
41044;BME280;51680;49.806;18.774;2023-03-14T11:55:35;95647.78;;;15.92;51.57
41044;BME280;51680;49.806;18.774;2023-03-14T11:58:44;95638.19;;;15.68;52.15
41044;BME280;51680;49.806;18.774;2023-03-14T12:01:53;95627.81;;;15.67;52.43
41044;BME280;51680;49.806;18.774;2023-03-14T12:08:42;95626.91;;;15.52;53.83
41044;BME280;51680;49.806;18.774;2023-03-14T12:11:47;95616.38;;;15.52;53.37
41044;BME280;51680;49.806;18.774;2023-03-14T12:14:55;95608.50;;;15.52;53.56
41044;BME280;51680;49.806;18.774;2023-03-14T12:17:59;95597.81;;;15.53;53.66
41044;BME280;51680;49.806;18.774;2023-03-14T12:21:03;95604.16;;;15.67;53.83
41044;BME280;51680;49.806;18.774;2023-03-14T12:24:18;95609.53;;;15.73;54.57
41044;BME280;51680;49.806;18.774;2023-03-14T12:31:37;95606.28;;;15.71;55.27
41044;BME280;51680;49.806;18.774;2023-03-14T12:35:07;95597.06;;;15.75;54.69
41044;BME280;51680;49.806;18.774;2023-03-14T12:38:43;95602.47;;;15.74;55.03
41044;BME280;51680;49.806;18.774;2023-03-14T12:41:51;95604.03;;;15.60;54.81
41044;BME280;51680;49.806;18.774;2023-03-14T12:45:13;95609.81;;;15.56;55.91
41044;BME280;51680;49.806;18.774;2023-03-14T12:48:22;95609.81;;;15.48;55.84
41044;BME280;51680;49.806;18.774;2023-03-14T12:51:30;95619.72;;;15.38;56.07
41044;BME280;51680;49.806;18.774;2023-03-14T12:54:39;95620.09;;;15.27;56.69
41044;BME280;51680;49.806;18.774;2023-03-14T12:57:50;95616.38;;;15.13;56.77
41044;BME280;51680;49.806;18.774;2023-03-14T13:00:59;95623.94;;;15.08;56.82
41044;BME280;51680;49.806;18.774;2023-03-14T13:04:07;95636.75;;;15.03;57.70
41044;BME280;51680;49.806;18.774;2023-03-14T13:07:12;95634.47;;;15.00;56.74
41044;BME280;51680;49.806;18.774;2023-03-14T13:10:21;95640.06;;;14.89;58.39
41044;BME280;51680;49.806;18.774;2023-03-14T13:13:24;95639.75;;;14.84;57.56
41044;BME280;51680;49.806;18.774;2023-03-14T13:16:27;95632.66;;;14.85;57.69
41044;BME280;51680;49.806;18.774;2023-03-14T13:19:33;95649.28;;;14.85;58.49
41044;BME280;51680;49.806;18.774;2023-03-14T13:22:35;95652.25;;;14.74;58.73
41044;BME280;51680;49.806;18.774;2023-03-14T13:25:39;95659.78;;;14.69;59.02
41044;BME280;51680;49.806;18.774;2023-03-14T13:28:41;95666.19;;;14.67;59.24
41044;BME280;51680;49.806;18.774;2023-03-14T13:31:44;95660.13;;;14.58;60.19
41044;BME280;51680;49.806;18.774;2023-03-14T13:34:48;95669.50;;;14.53;60.06
41044;BME280;51680;49.806;18.774;2023-03-14T13:37:57;95659.78;;;14.37;62.72
41044;BME280;51680;49.806;18.774;2023-03-14T13:41:04;95671.91;;;14.30;62.03
41044;BME280;51680;49.806;18.774;2023-03-14T13:44:07;95657.81;;;14.23;62.21
41044;BME280;51680;49.806;18.774;2023-03-14T13:47:13;95668.94;;;14.17;62.97
41044;BME280;51680;49.806;18.774;2023-03-14T13:50:18;95665.78;;;14.14;63.21
41044;BME280;51680;49.806;18.774;2023-03-14T13:53:20;95664.97;;;14.05;63.56
41044;BME280;51680;49.806;18.774;2023-03-14T13:56:23;95676.13;;;13.99;64.62
41044;BME280;51680;49.806;18.774;2023-03-14T13:59:27;95677.03;;;13.82;65.94
41044;BME280;51680;49.806;18.774;2023-03-14T14:02:30;95672.09;;;13.71;66.17
41044;BME280;51680;49.806;18.774;2023-03-14T14:05:34;95675.03;;;13.60;66.55
41044;BME280;51680;49.806;18.774;2023-03-14T14:08:41;95668.44;;;13.56;68.80
41044;BME280;51680;49.806;18.774;2023-03-14T14:11:46;95665.28;;;13.45;67.84
41044;BME280;51680;49.806;18.774;2023-03-14T14:14:51;95668.19;;;13.42;68.30
41044;BME280;51680;49.806;18.774;2023-03-14T14:17:55;95675.88;;;13.35;68.40
41044;BME280;51680;49.806;18.774;2023-03-14T14:21:00;95655.53;;;13.29;69.09
41044;BME280;51680;49.806;18.774;2023-03-14T14:24:02;95662.06;;;13.25;68.97
41044;BME280;51680;49.806;18.774;2023-03-14T14:27:09;95667.84;;;13.29;71.32
41044;BME280;51680;49.806;18.774;2023-03-14T14:30:27;95669.94;;;13.25;72.75
41044;BME280;51680;49.806;18.774;2023-03-14T14:33:38;95666.84;;;13.30;71.16
41044;BME280;51680;49.806;18.774;2023-03-14T14:36:41;95661.28;;;13.33;69.48
41044;BME280;51680;49.806;18.774;2023-03-14T14:39:51;95675.16;;;13.25;69.48
41044;BME280;51680;49.806;18.774;2023-03-14T14:42:53;95672.19;;;13.20;69.62
41044;BME280;51680;49.806;18.774;2023-03-14T14:45:56;95666.59;;;13.15;69.87
41044;BME280;51680;49.806;18.774;2023-03-14T14:49:03;95660.34;;;13.08;71.52
41044;BME280;51680;49.806;18.774;2023-03-14T14:52:10;95659.53;;;13.08;70.80
41044;BME280;51680;49.806;18.774;2023-03-14T14:55:17;95662.97;;;13.08;70.47
41044;BME280;51680;49.806;18.774;2023-03-14T14:58:24;95672.31;;;13.11;69.70
41044;BME280;51680;49.806;18.774;2023-03-14T15:01:31;95663.19;;;13.15;70.03
41044;BME280;51680;49.806;18.774;2023-03-14T15:04:34;95674.47;;;13.15;69.53
41044;BME280;51680;49.806;18.774;2023-03-14T15:07:37;95679.06;;;13.13;69.22
41044;BME280;51680;49.806;18.774;2023-03-14T15:10:39;95673.47;;;13.08;69.13
41044;BME280;51680;49.806;18.774;2023-03-14T15:13:41;95675.59;;;13.13;69.51
41044;BME280;51680;49.806;18.774;2023-03-14T15:16:43;95676.44;;;13.13;69.61
41044;BME280;51680;49.806;18.774;2023-03-14T15:19:45;95682.59;;;13.04;70.82
41044;BME280;51680;49.806;18.774;2023-03-14T15:22:48;95689.13;;;13.00;71.95
41044;BME280;51680;49.806;18.774;2023-03-14T15:25:49;95687.03;;;12.86;72.67
41044;BME280;51680;49.806;18.774;2023-03-14T15:28:52;95692.53;;;12.75;73.20
41044;BME280;51680;49.806;18.774;2023-03-14T15:31:54;95680.13;;;12.60;74.20
41044;BME280;51680;49.806;18.774;2023-03-14T15:34:56;95673.41;;;12.57;73.92
41044;BME280;51680;49.806;18.774;2023-03-14T15:38:00;95664.31;;;12.44;74.30
41044;BME280;51680;49.806;18.774;2023-03-14T15:41:02;95676.56;;;12.43;74.46
41044;BME280;51680;49.806;18.774;2023-03-14T15:44:04;95672.97;;;12.44;73.96
41044;BME280;51680;49.806;18.774;2023-03-14T15:47:07;95662.19;;;12.47;74.02
41044;BME280;51680;49.806;18.774;2023-03-14T15:50:10;95646.00;;;12.26;75.39
41044;BME280;51680;49.806;18.774;2023-03-14T15:53:14;95638.16;;;12.26;75.08
41044;BME280;51680;49.806;18.774;2023-03-14T15:56:18;95623.53;;;12.16;75.24
41044;BME280;51680;49.806;18.774;2023-03-14T15:59:20;95593.41;;;11.94;76.98
41044;BME280;51680;49.806;18.774;2023-03-14T16:02:22;95594.25;;;11.95;75.46
41044;BME280;51680;49.806;18.774;2023-03-14T16:05:24;95595.44;;;12.00;75.38
41044;BME280;51680;49.806;18.774;2023-03-14T16:08:27;95602.00;;;12.04;74.97
41044;BME280;51680;49.806;18.774;2023-03-14T16:11:30;95612.59;;;12.03;75.63
41044;BME280;51680;49.806;18.774;2023-03-14T16:14:31;95616.56;;;12.07;75.73
41044;BME280;51680;49.806;18.774;2023-03-14T16:17:33;95606.88;;;11.99;77.22
41044;BME280;51680;49.806;18.774;2023-03-14T16:20:35;95602.84;;;11.87;78.33